Yale, VA (23897)

5:18 PM EST on December 06, 2016 (GMT -0500)
Halligan Park Road | | Change Station

Elev 157 ft 37.03 °N, 77.39 °W | Updated 8 minutes ago

Heavy Rain
Heavy Rain
49.3 °F
Feels Like 48 °F
N
4.3
Wind Variable Wind from SE
Gusts 18.6 mph

Today
High -- | Low -- °F
--% Chance of Precip.
Yesterday
High -- | Low -- °F
Precip. -- in
Pressure 29.69 in
Visibility 1.8 miles
Clouds Overcast 500 ft
Windchill 48 °F
Dew Point 46 °F
Humidity 88%
Rainfall 0.46 in
Snow Depth Not available.
7:08 AM 4:52 PM
Waxing Crescent, 45% visible
METAR KEMV 062155Z AUTO 29011G15KT 1 3/4SM +RA OVC005 08/08 A2969 RMK AO2 P0011
Pressure 29.69 in
Visibility 1.8 miles
Clouds Overcast 500 ft
Windchill 48 °F
Dew Point 46 °F
Humidity 88%
Rainfall 0.46 in
Snow Depth Not available.
7:08 AM 4:52 PM
Waxing Crescent, 45% visible
METAR KEMV 062155Z AUTO 29011G15KT 1 3/4SM +RA OVC005 08/08 A2969 RMK AO2 P0011

10-Day Weather Forecast

Almanac

Astronomy

Dec. 06, 2016 Rise Set
Actual Time
Civil Twilight
Nautical Twilight
Astronomical Twilight
Moon
Length of Visible Light
Length of Day
Tomorrow will be .
, % of the Moon is Illuminated

Today's Extremes

State Highs State Lows

Community

WunderPhotos

Upload Photos

1,956,038 photos uploaded!

WunderBlog® & News

Nearby

Air Quality

  Air Quality AQ Index Pollutant
Not available.

Snow Depth

Station Depth Elevation

Earthquake Activity

City Distance Mag. Time & Date
Minimum magnitude displayed is 2.5.

Coastal Water Temperatures

Place Temperature

Stations

Nearby Weather Stations

Station Location Temp. Windchill Dew Point Humidity Wind Precip. Elev Updated Type
                   

Watches & Warnings

There are currently no watches in effect.